Time;durP1;ratioP1;P1;durP2;ratioP2;P2;SDS_P1;SDS_P2;PMS_P1;PMS_P2;Temp;Humidity;BMP_temperature;BMP_pressure;BME280_temperature;BME280_humidity;BME280_pressure;Samples;Min_cycle;Max_cycle;Signal;HPM_P1;HPM_P2
2023/11/25 05:41:02;;;;;;;29.87;10.00;;;2.60;99.90;;;;;;5203724;23;20245;-65
2023/11/25 05:43:28;;;;;;;30.07;9.87;;;2.60;99.90;;;;;;4957973;28;20186;-63
2023/11/25 05:45:54;;;;;;;27.73;10.23;;;2.70;99.90;;;;;;4951554;28;20197;-64
2023/11/25 05:48:22;;;;;;;33.47;10.37;;;2.60;99.90;;;;;;4951752;29;20191;-64
2023/11/25 05:50:48;;;;;;;26.57;10.40;;;2.60;99.90;;;;;;4951241;28;20238;-63
2023/11/25 05:53:14;;;;;;;29.40;9.60;;;2.60;99.90;;;;;;4951497;28;20193;-63
2023/11/25 05:55:39;;;;;;;25.30;9.77;;;2.60;99.90;;;;;;4952581;28;20198;-64
2023/11/25 05:58:05;;;;;;;29.73;10.47;;;2.60;99.90;;;;;;4951669;29;20643;-63
2023/11/25 06:00:30;;;;;;;31.90;10.33;;;2.50;99.90;;;;;;4950044;28;20697;-64
2023/11/25 06:02:56;;;;;;;32.17;10.07;;;2.60;99.90;;;;;;4951879;29;20186;-64
2023/11/25 06:05:22;;;;;;;39.03;10.83;;;2.60;99.90;;;;;;4952136;28;20182;-64
2023/11/25 06:07:47;;;;;;;24.90;9.60;;;2.70;99.90;;;;;;4951912;29;20187;-64
2023/11/25 06:10:14;;;;;;;29.10;10.07;;;2.60;99.90;;;;;;4951965;28;20213;-64
2023/11/25 06:12:40;;;;;;;31.77;10.17;;;2.60;99.90;;;;;;4955412;29;20198;-65
2023/11/25 06:15:06;;;;;;;33.53;9.97;;;2.70;99.90;;;;;;4952670;29;20609;-64
2023/11/25 06:17:32;;;;;;;27.20;10.07;;;2.60;99.90;;;;;;4954128;29;20241;-63
2023/11/25 06:19:58;;;;;;;35.57;10.33;;;2.60;99.90;;;;;;4957472;28;20217;-63
2023/11/25 06:22:23;;;;;;;26.87;8.67;;;2.60;99.90;;;;;;4950574;29;20183;-64
2023/11/25 06:24:49;;;;;;;25.33;8.87;;;2.60;99.90;;;;;;4955260;29;20274;-64
2023/11/25 06:27:14;;;;;;;29.43;8.57;;;2.60;99.90;;;;;;4955346;29;20564;-64
2023/11/25 06:29:40;;;;;;;31.77;9.23;;;2.60;99.90;;;;;;4954473;28;20213;-64
2023/11/25 06:32:06;;;;;;;32.13;9.17;;;2.60;99.90;;;;;;4955139;29;20678;-64
2023/11/25 06:34:35;;;;;;;29.07;8.47;;;2.60;99.90;;;;;;4942563;29;20672;-64
2023/11/25 06:37:00;;;;;;;24.77;8.70;;;2.60;99.90;;;;;;4955233;28;20190;-64
2023/11/25 06:39:31;;;;;;;30.40;8.33;;;2.70;99.90;;;;;;4954315;28;20804;-64
2023/11/25 06:41:58;;;;;;;30.37;9.47;;;2.70;99.90;;;;;;4955134;28;20200;-64
2023/11/25 06:44:24;;;;;;;29.13;9.53;;;2.70;99.90;;;;;;4955004;28;20174;-64
2023/11/25 06:46:49;;;;;;;31.87;9.47;;;2.70;99.90;;;;;;4954921;28;20187;-64
2023/11/25 06:49:15;;;;;;;27.27;8.83;;;2.70;99.90;;;;;;4954391;28;20665;-64
2023/11/25 06:51:41;;;;;;;29.27;9.27;;;2.70;99.90;;;;;;4954883;29;20638;-64
2023/11/25 06:54:08;;;;;;;30.60;9.33;;;2.70;99.90;;;;;;4954753;29;20190;-63
2023/11/25 06:56:34;;;;;;;30.50;10.10;;;2.70;99.90;;;;;;4954722;28;20218;-64
2023/11/25 06:59:00;;;;;;;38.80;11.17;;;2.70;99.90;;;;;;4961723;28;20203;-64
2023/11/25 07:01:26;;;;;;;31.47;10.37;;;2.80;99.90;;;;;;4954356;28;20214;-67
2023/11/25 07:03:52;;;;;;;39.80;10.27;;;2.70;99.90;;;;;;4954474;29;20705;-64
2023/11/25 07:06:18;;;;;;;31.07;10.60;;;2.80;99.90;;;;;;4954728;28;20190;-64
2023/11/25 07:08:46;;;;;;;31.10;10.30;;;2.70;99.90;;;;;;4953900;29;20230;-64
2023/11/25 07:11:13;;;;;;;31.33;11.30;;;2.70;99.90;;;;;;4954298;28;20578;-65
2023/11/25 07:13:39;;;;;;;36.97;10.33;;;2.70;99.90;;;;;;4954436;29;20613;-66
2023/11/25 07:16:07;;;;;;;34.07;10.60;;;2.80;99.90;;;;;;4954508;29;20202;-66
2023/11/25 07:18:33;;;;;;;30.17;10.60;;;2.70;99.90;;;;;;4954741;29;20666;-66
2023/11/25 07:20:59;;;;;;;38.73;12.87;;;2.70;99.90;;;;;;4945181;28;20640;-66
2023/11/25 07:23:26;;;;;;;40.97;14.37;;;2.70;99.90;;;;;;4952940;29;20348;-67
2023/11/25 07:25:51;;;;;;;38.40;13.40;;;2.70;99.90;;;;;;4958874;28;20497;-66
2023/11/25 07:28:17;;;;;;;38.80;13.30;;;2.70;99.90;;;;;;4950130;29;20302;-66
2023/11/25 07:30:43;;;;;;;39.73;12.23;;;2.70;99.90;;;;;;4947874;28;20581;-66
2023/11/25 07:33:09;;;;;;;43.67;12.47;;;2.80;99.90;;;;;;4948152;28;20202;-66
2023/11/25 07:35:36;;;;;;;47.53;13.20;;;2.80;99.90;;;;;;4947949;28;20195;-66
2023/11/25 07:38:05;;;;;;;30.83;11.83;;;2.80;99.90;;;;;;4946846;28;20224;-65
2023/11/25 07:40:30;;;;;;;36.10;12.17;;;2.80;99.90;;;;;;4946423;28;20627;-64
2023/11/25 07:42:56;;;;;;;38.00;12.23;;;2.90;99.90;;;;;;4947305;28;20274;-65
2023/11/25 07:45:22;;;;;;;39.17;12.50;;;2.90;99.90;;;;;;4947632;28;20190;-64
2023/11/25 07:47:47;;;;;;;31.40;10.63;;;2.90;99.90;;;;;;4951481;28;20225;-65
2023/11/25 07:50:14;;;;;;;31.97;10.17;;;2.90;99.90;;;;;;4947914;28;20210;-64
2023/11/25 07:52:39;;;;;;;40.37;11.10;;;2.90;99.90;;;;;;4952317;28;20259;-65
2023/11/25 07:55:06;;;;;;;39.00;10.17;;;2.90;99.90;;;;;;4953058;29;20183;-65
2023/11/25 07:57:32;;;;;;;31.13;9.93;;;3.00;99.90;;;;;;4953109;29;20193;-66
2023/11/25 07:59:58;;;;;;;34.47;10.13;;;3.00;99.90;;;;;;4952064;28;20214;-64
2023/11/25 08:02:24;;;;;;;34.90;10.37;;;3.00;99.90;;;;;;4953014;29;20182;-64
2023/11/25 08:04:50;;;;;;;27.90;9.43;;;3.00;99.90;;;;;;4960549;28;20680;-64
2023/11/25 08:07:15;;;;;;;26.90;8.03;;;3.00;99.90;;;;;;4952646;29;20214;-64
2023/11/25 08:09:42;;;;;;;35.07;9.03;;;3.00;99.90;;;;;;4951953;28;20214;-65
2023/11/25 08:12:08;;;;;;;22.50;8.80;;;3.00;99.90;;;;;;4952813;28;20194;-64
2023/11/25 08:14:35;;;;;;;24.47;7.47;;;3.00;99.90;;;;;;4952440;29;20518;-64
2023/11/25 08:17:01;;;;;;;23.57;8.50;;;3.00;99.90;;;;;;4952668;28;20182;-64
2023/11/25 08:19:27;;;;;;;28.77;7.77;;;3.00;99.90;;;;;;4951835;28;20649;-64
2023/11/25 08:21:52;;;;;;;19.40;7.50;;;3.00;99.90;;;;;;4952337;29;20604;-64
2023/11/25 08:24:18;;;;;;;19.50;6.77;;;3.00;99.90;;;;;;4952387;28;20210;-65
2023/11/25 08:26:44;;;;;;;15.90;6.53;;;3.00;99.90;;;;;;4952414;29;20178;-64
2023/11/25 08:29:11;;;;;;;18.13;6.53;;;3.00;99.90;;;;;;4951723;28;20222;-64
2023/11/25 08:31:37;;;;;;;15.73;6.17;;;3.00;99.90;;;;;;4952190;29;20183;-64
2023/11/25 08:34:11;;;;;;;13.67;5.83;;;3.00;99.90;;;;;;4951421;28;20185;-64
2023/11/25 08:36:44;;;;;;;13.97;5.23;;;3.00;99.90;;;;;;4952036;28;20183;-64
2023/11/25 08:39:13;;;;;;;10.20;5.47;;;3.10;99.90;;;;;;4956500;28;20223;-64
2023/11/25 08:41:41;;;;;;;10.07;4.77;;;3.10;99.90;;;;;;4954682;28;20194;-64
2023/11/25 08:44:06;;;;;;;15.17;4.80;;;3.00;99.90;;;;;;4952180;28;20182;-64
2023/11/25 08:46:35;;;;;;;9.17;5.00;;;3.10;99.90;;;;;;4952050;29;20186;-65
2023/11/25 08:49:01;;;;;;;8.67;3.77;;;3.20;99.90;;;;;;4951402;29;20193;-65
2023/11/25 08:51:26;;;;;;;6.30;3.13;;;3.20;99.90;;;;;;4951846;28;20214;-63
2023/11/25 08:53:54;;;;;;;8.50;4.73;;;3.20;99.90;;;;;;4952150;29;20187;-63
2023/11/25 08:56:20;;;;;;;7.33;3.20;;;3.20;99.90;;;;;;4951823;29;20187;-63
2023/11/25 08:58:46;;;;;;;13.00;4.50;;;3.20;99.90;;;;;;4935806;29;20562;-63
2023/11/25 09:01:11;;;;;;;8.27;4.30;;;3.10;99.90;;;;;;4951769;28;20207;-63
2023/11/25 09:03:37;;;;;;;10.40;4.87;;;3.10;99.90;;;;;;4952090;29;20195;-63
2023/11/25 09:06:03;;;;;;;12.63;5.77;;;3.00;99.90;;;;;;4942024;29;20313;-65
2023/11/25 09:08:29;;;;;;;12.77;5.80;;;3.00;99.90;;;;;;4952095;29;20186;-64
2023/11/25 09:10:56;;;;;;;14.03;5.73;;;3.00;99.90;;;;;;4951108;28;20284;-64
2023/11/25 09:13:22;;;;;;;16.53;6.60;;;3.10;99.90;;;;;;4951715;28;20361;-64
2023/11/25 09:15:50;;;;;;;21.90;6.50;;;3.00;99.90;;;;;;4961241;28;20193;-65
2023/11/25 09:18:16;;;;;;;22.23;7.70;;;3.10;99.90;;;;;;4957689;28;20182;-65
2023/11/25 09:20:42;;;;;;;19.43;7.43;;;3.10;99.90;;;;;;4959189;28;20619;-65
2023/11/25 09:23:07;;;;;;;25.73;8.23;;;3.10;99.90;;;;;;4956127;28;20182;-64
2023/11/25 09:25:33;;;;;;;24.40;8.50;;;3.10;99.90;;;;;;4955350;28;20193;-64
2023/11/25 09:27:59;;;;;;;24.43;9.37;;;3.10;99.90;;;;;;4951475;28;20190;-64
2023/11/25 09:30:24;;;;;;;20.37;9.27;;;3.10;99.90;;;;;;4938445;29;20681;-63
2023/11/25 09:32:50;;;;;;;22.97;9.43;;;3.10;99.90;;;;;;4951331;29;20562;-63
2023/11/25 09:35:15;;;;;;;22.27;9.37;;;3.10;99.90;;;;;;4951467;29;20214;-63
2023/11/25 09:37:43;;;;;;;24.30;9.37;;;3.10;99.90;;;;;;4951467;29;20213;-63
2023/11/25 09:40:15;;;;;;;33.70;9.10;;;3.10;99.90;;;;;;4955258;28;20217;-63
2023/11/25 09:42:44;;;;;;;22.70;9.27;;;3.20;99.90;;;;;;4953955;28;20186;-63
2023/11/25 09:45:11;;;;;;;29.53;9.27;;;3.20;99.90;;;;;;4953923;28;20193;-63
2023/11/25 09:47:37;;;;;;;21.20;7.70;;;3.20;99.90;;;;;;4955222;29;20667;-64
2023/11/25 09:50:10;;;;;;;29.83;8.47;;;3.20;99.90;;;;;;4954904;28;20582;-65
2023/11/25 09:52:47;;;;;;;23.77;8.43;;;3.30;99.90;;;;;;4955217;28;20627;-64
2023/11/25 09:55:16;;;;;;;21.80;8.73;;;3.30;99.90;;;;;;4938164;29;20639;-64
2023/11/25 09:57:42;;;;;;;17.83;7.93;;;3.30;99.90;;;;;;4954987;29;20194;-64
2023/11/25 10:00:11;;;;;;;16.97;7.50;;;3.30;99.90;;;;;;4962398;28;20214;-65
2023/11/25 10:02:39;;;;;;;23.43;8.33;;;3.40;99.90;;;;;;4955208;29;20183;-64
2023/11/25 10:05:05;;;;;;;17.90;8.07;;;3.40;99.90;;;;;;4955130;29;20183;-66
2023/11/25 10:07:31;;;;;;;18.07;7.37;;;3.40;99.90;;;;;;4954951;29;20277;-64
2023/11/25 10:09:56;;;;;;;15.30;6.60;;;3.40;99.90;;;;;;4954414;28;20292;-64
2023/11/25 10:12:23;;;;;;;20.40;7.33;;;3.40;99.90;;;;;;4954952;29;20197;-65
2023/11/25 10:14:49;;;;;;;19.70;7.47;;;3.40;99.90;;;;;;4954813;29;20254;-65
2023/11/25 10:17:17;;;;;;;15.57;6.43;;;3.40;99.90;;;;;;4954807;29;20342;-65
2023/11/25 10:19:44;;;;;;;15.57;6.20;;;3.50;99.90;;;;;;4954205;28;20221;-65
2023/11/25 10:22:11;;;;;;;17.53;5.77;;;3.50;99.90;;;;;;4954905;28;20583;-65
2023/11/25 10:24:44;;;;;;;15.00;5.70;;;3.50;99.90;;;;;;4954478;29;20229;-64
2023/11/25 10:27:09;;;;;;;14.67;6.00;;;3.60;99.90;;;;;;4954738;29;20190;-65
2023/11/25 10:29:39;;;;;;;12.63;5.63;;;3.60;99.90;;;;;;4954048;28;20214;-65
2023/11/25 10:32:07;;;;;;;18.20;6.07;;;3.70;99.90;;;;;;4947288;29;20187;-65
2023/11/25 10:34:35;;;;;;;13.07;5.87;;;3.80;99.90;;;;;;4954630;28;20197;-64
2023/11/25 10:37:01;;;;;;;10.47;4.53;;;3.90;99.90;;;;;;4954375;28;20195;-64
2023/11/25 10:39:32;;;;;;;13.13;6.37;;;3.90;99.90;;;;;;4953833;28;20222;-64
2023/11/25 10:41:58;;;;;;;8.10;4.60;;;3.90;99.90;;;;;;4953899;28;20202;-64
2023/11/25 10:44:24;;;;;;;8.20;4.10;;;3.90;99.90;;;;;;4954381;29;20672;-64
2023/11/25 10:46:55;;;;;;;8.63;4.67;;;3.90;99.90;;;;;;4953470;29;20616;-64
2023/11/25 10:49:22;;;;;;;11.30;4.67;;;4.00;99.90;;;;;;4953428;28;20261;-64
2023/11/25 10:51:51;;;;;;;7.73;3.80;;;3.90;99.90;;;;;;4954186;29;20185;-65
2023/11/25 10:54:20;;;;;;;9.97;4.00;;;4.00;99.90;;;;;;4954390;29;20194;-65
2023/11/25 10:56:46;;;;;;;6.83;3.67;;;4.00;99.90;;;;;;4952950;28;20217;-64
2023/11/25 10:59:15;;;;;;;8.83;4.33;;;4.00;99.90;;;;;;4953724;28;20241;-65
2023/11/25 11:01:43;;;;;;;7.37;3.43;;;4.00;99.90;;;;;;4953940;29;20188;-64
2023/11/25 11:04:26;;;;;;;7.87;3.60;;;4.00;99.90;;;;;;4954035;29;20255;-64
2023/11/25 11:07:00;;;;;;;13.17;4.07;;;4.00;99.90;;;;;;4953943;29;20178;-64
2023/11/25 11:09:29;;;;;;;9.40;4.77;;;4.00;99.90;;;;;;4961507;28;20182;-64
2023/11/25 11:12:01;;;;;;;12.33;4.47;;;4.00;99.90;;;;;;4961943;28;20273;-65
2023/11/25 11:14:32;;;;;;;6.20;3.70;;;4.00;99.90;;;;;;4954073;29;20578;-64
2023/11/25 11:17:10;;;;;;;10.40;4.53;;;4.10;99.90;;;;;;4953834;29;20194;-64
2023/11/25 11:19:42;;;;;;;5.90;3.60;;;4.10;99.90;;;;;;4953257;28;20664;-64
2023/11/25 11:22:11;;;;;;;15.93;5.50;;;4.10;99.90;;;;;;4946824;28;20273;-64
2023/11/25 11:25:07;;;;;;;9.83;4.63;;;4.10;99.90;;;;;;4953004;28;20233;-63
2023/11/25 11:27:46;;;;;;;12.70;4.73;;;4.10;99.90;;;;;;4952747;29;20178;-64
2023/11/25 11:30:26;;;;;;;11.00;4.43;;;4.20;99.90;;;;;;4945806;28;20270;-65
2023/11/25 11:32:53;;;;;;;13.77;4.67;;;4.10;99.90;;;;;;4953394;28;20182;-64
2023/11/25 11:35:21;;;;;;;7.93;3.87;;;4.10;99.90;;;;;;4953639;28;20233;-64
2023/11/25 11:37:49;;;;;;;12.90;4.47;;;4.10;99.90;;;;;;4953191;29;20221;-64
2023/11/25 11:40:20;;;;;;;7.67;4.07;;;4.10;99.90;;;;;;4952299;28;20297;-63
2023/11/25 11:42:46;;;;;;;7.60;4.37;;;4.10;99.90;;;;;;4953353;28;20187;-64
2023/11/25 11:45:22;;;;;;;8.10;3.93;;;4.10;99.90;;;;;;4953286;29;20182;-64
2023/11/25 11:47:56;;;;;;;9.17;4.13;;;4.10;99.90;;;;;;4953114;28;20205;-64
2023/11/25 11:50:25;;;;;;;14.13;5.03;;;4.10;99.90;;;;;;4952462;28;20696;-64
2023/11/25 11:53:00;;;;;;;8.17;3.87;;;4.10;99.90;;;;;;4952902;29;20678;-65
2023/11/25 11:55:31;;;;;;;17.67;5.80;;;4.10;99.90;;;;;;4953114;29;20182;-64
2023/11/25 11:58:10;;;;;;;11.43;5.00;;;4.10;99.90;;;;;;4952934;29;20197;-64
2023/11/25 12:00:46;;;;;;;12.33;4.33;;;4.10;99.90;;;;;;4952029;28;20251;-64
2023/11/25 12:03:12;;;;;;;8.90;4.27;;;4.10;99.90;;;;;;4952914;28;20185;-64
2023/11/25 12:05:38;;;;;;;14.57;4.57;;;4.10;99.90;;;;;;4952784;29;20270;-64
2023/11/25 12:08:05;;;;;;;13.40;5.30;;;4.00;99.90;;;;;;4952952;28;20186;-64
2023/11/25 12:10:31;;;;;;;9.63;5.53;;;4.00;99.90;;;;;;4952055;28;20607;-66
2023/11/25 12:12:57;;;;;;;13.17;4.10;;;4.00;99.90;;;;;;4952330;29;20190;-65
2023/11/25 12:15:23;;;;;;;10.90;4.00;;;4.10;99.90;;;;;;4952702;29;20270;-64
2023/11/25 12:17:50;;;;;;;7.40;4.03;;;4.10;99.90;;;;;;4952401;29;20835;-64
2023/11/25 12:20:16;;;;;;;6.53;4.03;;;4.10;99.90;;;;;;4951898;28;20324;-65
2023/11/25 12:22:43;;;;;;;13.00;5.30;;;4.20;99.90;;;;;;4943335;29;20345;-64
2023/11/25 12:25:16;;;;;;;8.03;4.30;;;4.20;99.90;;;;;;4952506;29;20201;-64
2023/11/25 12:28:14;;;;;;;12.57;4.80;;;4.20;99.90;;;;;;4952414;29;20183;-65
2023/11/25 12:30:41;;;;;;;13.50;4.57;;;4.20;99.90;;;;;;4918601;28;20709;-64
2023/11/25 12:33:08;;;;;;;9.17;4.57;;;4.20;99.90;;;;;;4952054;29;20669;-65
2023/11/25 12:35:35;;;;;;;10.60;4.40;;;4.30;99.90;;;;;;4952347;29;20189;-64
2023/11/25 12:38:01;;;;;;;9.37;3.90;;;4.30;99.90;;;;;;4952198;28;20253;-64
2023/11/25 12:40:28;;;;;;;9.80;4.80;;;4.40;99.90;;;;;;4951278;28;20222;-64
2023/11/25 12:42:54;;;;;;;11.20;4.70;;;4.40;99.90;;;;;;4952005;29;20186;-64
2023/11/25 12:45:36;;;;;;;8.37;4.57;;;4.40;99.90;;;;;;4952463;29;20205;-65
2023/11/25 12:48:05;;;;;;;18.77;4.63;;;4.40;99.90;;;;;;4952094;28;20238;-64
2023/11/25 12:50:31;;;;;;;11.87;4.40;;;4.40;99.90;;;;;;4951486;28;20240;-64
2023/11/25 12:53:07;;;;;;;10.37;4.63;;;4.40;99.90;;;;;;4951926;29;20592;-63
2023/11/25 12:55:43;;;;;;;7.67;4.13;;;4.30;99.90;;;;;;4952050;28;20182;-64
2023/11/25 12:58:10;;;;;;;8.33;4.17;;;4.40;99.90;;;;;;4952121;29;20179;-64
2023/11/25 13:00:37;;;;;;;9.70;4.70;;;4.30;99.90;;;;;;4951129;28;20288;-64
2023/11/25 13:03:03;;;;;;;16.03;7.50;;;4.30;99.90;;;;;;4943808;29;20241;-64
2023/11/25 13:05:32;;;;;;;19.27;5.83;;;4.30;99.90;;;;;;4952160;28;20175;-64
2023/11/25 13:07:58;;;;;;;14.63;5.27;;;4.30;99.90;;;;;;4951611;29;20558;-64
2023/11/25 13:10:24;;;;;;;13.50;5.30;;;4.40;99.90;;;;;;4951243;28;20209;-64
2023/11/25 13:12:49;;;;;;;10.80;5.90;;;4.30;99.90;;;;;;4951783;29;20622;-64
2023/11/25 13:15:15;;;;;;;15.03;5.63;;;4.40;99.90;;;;;;4951719;29;20661;-64
2023/11/25 13:17:40;;;;;;;15.53;5.70;;;4.40;99.90;;;;;;4951944;29;20613;-64
2023/11/25 13:20:12;;;;;;;13.13;5.73;;;4.40;99.90;;;;;;4950552;28;20221;-64
2023/11/25 13:22:38;;;;;;;12.37;5.13;;;4.50;99.90;;;;;;4951599;29;20183;-64
2023/11/25 13:25:05;;;;;;;11.10;5.67;;;4.50;99.90;;;;;;4950236;29;20190;-64
2023/11/25 13:27:31;;;;;;;8.23;4.93;;;4.60;99.90;;;;;;4952894;28;20548;-64
2023/11/25 13:29:56;;;;;;;16.90;6.10;;;4.60;99.90;;;;;;4958703;28;20217;-63
2023/11/25 13:32:22;;;;;;;12.53;5.13;;;4.60;99.90;;;;;;4951600;28;20298;-63
2023/11/25 13:34:48;;;;;;;9.50;4.73;;;4.60;99.90;;;;;;4951379;29;20190;-63
2023/11/25 13:37:13;;;;;;;12.73;4.90;;;4.60;99.90;;;;;;4951455;29;20186;-63
2023/11/25 13:39:39;;;;;;;6.53;3.90;;;4.60;99.90;;;;;;4958746;28;20664;-64
2023/11/25 13:42:05;;;;;;;7.43;4.07;;;4.50;99.90;;;;;;4951532;29;20289;-63
2023/11/25 13:44:31;;;;;;;7.23;3.50;;;4.50;99.90;;;;;;4951555;28;20250;-63
2023/11/25 13:46:57;;;;;;;7.90;3.87;;;4.50;99.90;;;;;;4951395;29;20182;-64
2023/11/25 13:49:22;;;;;;;6.63;3.43;;;4.40;99.90;;;;;;4950713;28;20269;-64
2023/11/25 13:51:48;;;;;;;8.70;4.07;;;4.50;99.90;;;;;;4951569;28;20262;-66
2023/11/25 13:54:15;;;;;;;7.83;3.50;;;4.40;99.90;;;;;;4951602;29;20545;-64
2023/11/25 13:56:40;;;;;;;6.67;3.87;;;4.50;99.90;;;;;;4951154;29;20241;-64
2023/11/25 13:59:07;;;;;;;8.77;4.37;;;4.50;99.90;;;;;;4950933;29;20194;-63
2023/11/25 14:01:32;;;;;;;13.17;4.50;;;4.50;99.90;;;;;;4959558;28;20541;-64
2023/11/25 14:03:58;;;;;;;9.10;4.53;;;4.50;99.90;;;;;;4950996;29;20193;-64
2023/11/25 14:06:25;;;;;;;12.77;6.03;;;4.50;99.90;;;;;;4951387;29;20535;-64
2023/11/25 14:08:50;;;;;;;7.10;4.50;;;4.50;99.90;;;;;;4950801;28;20190;-64
2023/11/25 14:11:18;;;;;;;9.10;4.03;;;4.50;99.90;;;;;;4950917;28;20685;-64
2023/11/25 14:13:46;;;;;;;7.87;3.70;;;4.50;99.90;;;;;;4950963;29;20262;-64
2023/11/25 14:16:12;;;;;;;7.43;3.33;;;4.50;99.90;;;;;;4951043;28;20261;-64
2023/11/25 14:18:38;;;;;;;8.40;4.00;;;4.40;99.90;;;;;;4950969;28;20208;-64
2023/11/25 14:21:04;;;;;;;4.70;2.90;;;4.40;99.90;;;;;;4958529;28;20214;-63
2023/11/25 14:23:29;;;;;;;8.30;3.53;;;4.40;99.90;;;;;;4951133;29;20215;-64
2023/11/25 14:25:55;;;;;;;7.47;2.80;;;4.40;99.90;;;;;;4950904;29;20642;-64
2023/11/25 14:28:22;;;;;;;4.93;3.10;;;4.40;99.90;;;;;;4950952;29;20241;-64
2023/11/25 14:30:47;;;;;;;7.83;2.97;;;4.40;99.90;;;;;;4950696;28;20205;-65
2023/11/25 14:33:13;;;;;;;6.23;3.17;;;4.40;99.90;;;;;;4954671;28;20191;-65
2023/11/25 14:35:39;;;;;;;5.43;2.93;;;4.40;99.90;;;;;;4954382;29;20183;-64
2023/11/25 14:38:05;;;;;;;7.53;3.60;;;4.40;99.90;;;;;;4937510;29;20198;-65
2023/11/25 14:40:35;;;;;;;6.60;3.23;;;4.40;99.90;;;;;;4953389;28;20214;-63
2023/11/25 14:43:01;;;;;;;8.00;3.63;;;4.50;99.90;;;;;;4954041;28;20692;-63
2023/11/25 14:45:26;;;;;;;11.63;4.33;;;4.50;99.90;;;;;;4954219;29;20198;-65
2023/11/25 14:47:52;;;;;;;9.07;3.70;;;4.50;99.90;;;;;;4954207;29;20257;-64
2023/11/25 14:50:19;;;;;;;9.60;3.27;;;4.50;99.90;;;;;;4953887;28;20206;-64
2023/11/25 14:52:44;;;;;;;6.03;2.97;;;4.50;99.90;;;;;;4954088;28;20206;-64
2023/11/25 14:55:11;;;;;;;6.33;3.17;;;4.60;99.90;;;;;;4954127;29;20605;-64
2023/11/25 14:57:37;;;;;;;7.53;3.30;;;4.60;99.90;;;;;;4953680;29;20263;-63
2023/11/25 15:00:07;;;;;;;4.20;2.67;;;4.50;99.90;;;;;;4952648;28;20360;-64
2023/11/25 15:02:33;;;;;;;5.87;3.10;;;4.50;99.90;;;;;;4961163;28;20178;-68
2023/11/25 15:04:58;;;;;;;7.83;3.20;;;4.50;99.90;;;;;;4955348;28;20219;-64
2023/11/25 15:07:24;;;;;;;11.00;3.33;;;4.50;99.90;;;;;;4954730;29;20233;-64
2023/11/25 15:09:50;;;;;;;6.53;2.97;;;4.50;99.90;;;;;;4953597;28;20226;-64
2023/11/25 15:12:16;;;;;;;17.33;3.93;;;4.50;99.90;;;;;;4954375;29;20190;-64
2023/11/25 15:14:41;;;;;;;8.63;3.10;;;4.50;99.90;;;;;;4953178;29;20221;-64
2023/11/25 15:17:07;;;;;;;7.23;3.20;;;4.50;99.90;;;;;;4953626;28;20226;-64
2023/11/25 15:19:35;;;;;;;10.80;3.57;;;4.50;99.90;;;;;;4953697;28;20222;-64
2023/11/25 15:22:00;;;;;;;6.70;3.43;;;4.50;99.90;;;;;;4954617;28;20174;-64
2023/11/25 15:24:26;;;;;;;8.90;3.87;;;4.50;99.90;;;;;;4954176;29;20186;-64
2023/11/25 15:26:53;;;;;;;8.80;3.30;;;4.50;99.90;;;;;;4954043;28;20303;-63
2023/11/25 15:29:19;;;;;;;7.47;3.30;;;4.50;99.90;;;;;;4953617;28;20273;-64
2023/11/25 15:31:45;;;;;;;9.00;3.40;;;4.50;99.90;;;;;;4962039;28;20273;-64
2023/11/25 15:34:11;;;;;;;12.93;3.33;;;4.50;99.90;;;;;;4954172;29;20198;-64
2023/11/25 15:36:37;;;;;;;8.97;3.40;;;4.60;99.90;;;;;;4954369;28;20187;-64
2023/11/25 15:39:06;;;;;;;9.20;3.70;;;4.60;99.90;;;;;;4953332;29;20197;-64
2023/11/25 15:41:33;;;;;;;8.03;3.33;;;4.60;99.90;;;;;;4953157;28;20302;-64
2023/11/25 15:43:59;;;;;;;8.60;4.10;;;4.60;99.90;;;;;;4953810;28;20198;-65
2023/11/25 15:46:25;;;;;;;10.90;4.17;;;4.60;99.90;;;;;;4953997;28;20190;-64
2023/11/25 15:48:51;;;;;;;15.93;4.90;;;4.60;99.90;;;;;;4953332;28;20186;-64
2023/11/25 15:51:16;;;;;;;15.97;4.67;;;4.60;99.90;;;;;;4953548;28;20214;-64
2023/11/25 15:53:42;;;;;;;12.63;4.83;;;4.60;99.90;;;;;;4952699;29;20226;-64
2023/11/25 15:56:08;;;;;;;13.37;4.83;;;4.60;99.90;;;;;;4953084;29;20566;-64
2023/11/25 15:58:33;;;;;;;13.07;4.87;;;4.60;99.90;;;;;;4953033;28;20198;-64
2023/11/25 16:00:59;;;;;;;16.43;5.07;;;4.50;99.90;;;;;;4951656;28;20305;-64
2023/11/25 16:03:25;;;;;;;14.73;5.40;;;4.60;99.90;;;;;;4953633;29;20562;-64
2023/11/25 16:05:51;;;;;;;13.43;4.90;;;4.60;99.90;;;;;;4953399;29;20187;-64
2023/11/25 16:08:17;;;;;;;12.60;4.70;;;4.60;99.90;;;;;;4953726;29;20186;-64
2023/11/25 16:10:43;;;;;;;11.40;5.07;;;4.60;99.90;;;;;;4953186;28;20716;-64
2023/11/25 16:13:09;;;;;;;11.57;4.10;;;4.60;99.90;;;;;;4961056;28;20210;-64
2023/11/25 16:15:34;;;;;;;11.53;5.53;;;4.60;99.90;;;;;;4953602;29;20186;-64
2023/11/25 16:18:00;;;;;;;33.87;10.13;;;4.60;99.90;;;;;;4953285;29;20190;-64
2023/11/25 16:20:26;;;;;;;16.67;5.87;;;4.60;99.90;;;;;;4952542;28;20218;-64
2023/11/25 16:22:55;;;;;;;18.27;5.53;;;4.70;99.90;;;;;;4953288;28;20190;-64
2023/11/25 16:25:24;;;;;;;12.57;5.10;;;4.70;99.90;;;;;;4953108;28;20186;-64
2023/11/25 16:27:51;;;;;;;10.40;4.17;;;4.60;99.90;;;;;;4953364;28;20189;-64
2023/11/25 16:30:17;;;;;;;6.87;3.37;;;4.60;99.90;;;;;;4952398;28;20257;-64
2023/11/25 16:32:43;;;;;;;8.73;3.07;;;4.60;99.90;;;;;;4953123;29;20182;-64
2023/11/25 16:35:13;;;;;;;8.67;3.97;;;4.60;99.90;;;;;;4951228;29;20201;-64
2023/11/25 16:37:39;;;;;;;5.00;2.70;;;4.50;99.90;;;;;;4948930;29;20270;-64
2023/11/25 16:40:05;;;;;;;4.60;2.70;;;4.50;99.90;;;;;;4933389;29;20305;-64
2023/11/25 16:42:31;;;;;;;3.33;1.67;;;4.40;99.90;;;;;;4952932;29;20189;-64
2023/11/25 16:44:56;;;;;;;3.47;1.60;;;4.30;99.90;;;;;;4951467;28;20182;-64
2023/11/25 17:00:43;;;;;;;3.77;1.30;;;4.10;99.90;;;;;;5058576;27;20588;-61
2023/11/25 17:03:09;;;;;;;3.70;1.20;;;3.90;99.90;;;;;;5027418;28;20219;-61
2023/11/25 17:05:34;;;;;;;5.27;1.37;;;3.90;99.90;;;;;;5027419;28;20666;-64
2023/11/25 17:08:00;;;;;;;3.77;1.40;;;3.80;99.90;;;;;;5025306;28;20203;-62
2023/11/25 17:10:26;;;;;;;3.37;1.57;;;3.80;99.90;;;;;;5019361;28;20583;-61
2023/11/25 17:12:51;;;;;;;4.03;1.30;;;3.70;99.90;;;;;;5042605;28;20230;-62
2023/11/25 17:15:17;;;;;;;2.80;1.30;;;3.60;99.90;;;;;;5027229;28;20211;-63
2023/11/25 17:17:43;;;;;;;9.13;1.90;;;3.60;99.90;;;;;;5021043;28;20551;-61
2023/11/25 17:20:10;;;;;;;5.00;2.10;;;3.50;99.90;;;;;;5016877;28;20192;-61
2023/11/25 17:22:37;;;;;;;5.80;1.70;;;3.50;99.90;;;;;;5027155;28;20180;-63
2023/11/25 17:25:05;;;;;;;6.50;1.60;;;3.50;99.90;;;;;;5026553;28;20684;-63
2023/11/25 17:27:31;;;;;;;5.60;2.20;;;3.50;99.90;;;;;;5025875;28;20530;-64
2023/11/25 17:29:56;;;;;;;8.97;2.10;;;3.50;99.90;;;;;;5018901;28;20638;-63
2023/11/25 17:32:22;;;;;;;6.33;2.60;;;3.50;99.90;;;;;;5027114;28;20172;-63
2023/11/25 17:34:48;;;;;;;4.30;2.10;;;3.50;99.90;;;;;;5026695;28;20172;-63
2023/11/25 17:37:14;;;;;;;8.97;2.77;;;3.50;99.90;;;;;;5026456;28;20194;-61
2023/11/25 17:39:40;;;;;;;9.67;2.60;;;3.40;99.90;;;;;;5026690;28;20204;-61
2023/11/25 17:42:05;;;;;;;9.43;4.07;;;3.50;99.90;;;;;;5026565;28;20664;-63
2023/11/25 17:44:31;;;;;;;5.17;2.90;;;3.50;99.90;;;;;;5026942;28;20275;-60
2023/11/25 17:46:56;;;;;;;4.73;2.50;;;3.50;99.90;;;;;;5042162;28;20238;-61
2023/11/25 17:49:22;;;;;;;7.57;2.30;;;3.40;99.90;;;;;;5025878;28;20257;-63
2023/11/25 17:51:47;;;;;;;5.27;2.27;;;3.40;99.90;;;;;;5026780;28;20593;-64
2023/11/25 17:54:13;;;;;;;7.97;3.30;;;3.50;99.90;;;;;;5024839;28;20188;-62
2023/11/25 17:56:39;;;;;;;6.87;3.23;;;3.40;99.90;;;;;;5020161;28;20220;-63
2023/11/25 17:59:04;;;;;;;4.57;2.40;;;3.40;99.90;;;;;;5025532;28;20220;-62
2023/11/25 18:01:30;;;;;;;8.13;2.93;;;3.50;99.90;;;;;;5010809;28;20182;-64
2023/11/25 18:03:55;;;;;;;7.00;3.03;;;3.50;99.90;;;;;;5009176;28;20181;-62
2023/11/25 18:06:22;;;;;;;6.80;3.60;;;3.40;99.90;;;;;;5002424;28;20276;-63
2023/11/25 18:08:47;;;;;;;8.70;3.47;;;3.50;99.90;;;;;;5015931;28;20228;-61
2023/11/25 18:11:15;;;;;;;6.50;2.57;;;3.40;99.90;;;;;;5011248;28;20204;-65
2023/11/25 18:13:41;;;;;;;6.70;2.47;;;3.40;99.90;;;;;;5013251;28;20256;-65
2023/11/25 18:16:07;;;;;;;5.73;2.70;;;3.40;99.90;;;;;;5004958;28;20192;-65
2023/11/25 18:18:32;;;;;;;5.53;2.37;;;3.40;99.90;;;;;;5004362;28;20196;-66
2023/11/25 18:20:58;;;;;;;6.37;1.63;;;3.40;99.90;;;;;;5005439;28;20181;-63
2023/11/25 18:23:24;;;;;;;3.43;1.57;;;3.40;99.90;;;;;;5004388;28;20659;-64
2023/11/25 18:25:49;;;;;;;5.83;2.50;;;3.30;99.90;;;;;;5012740;28;20180;-65
2023/11/25 18:28:16;;;;;;;4.20;2.00;;;3.30;99.90;;;;;;5011932;28;20212;-65
2023/11/25 18:30:42;;;;;;;5.00;2.10;;;3.30;99.90;;;;;;5012996;28;20177;-65
2023/11/25 18:33:08;;;;;;;4.20;2.53;;;3.30;99.90;;;;;;5027701;28;20172;-65
2023/11/25 18:35:34;;;;;;;5.30;2.50;;;3.30;99.90;;;;;;5008806;28;20281;-65
2023/11/25 18:37:59;;;;;;;4.43;2.20;;;3.30;99.90;;;;;;5008539;28;20283;-64
2023/11/25 18:40:25;;;;;;;6.40;2.00;;;3.30;99.90;;;;;;5004327;28;20188;-64
2023/11/25 18:42:51;;;;;;;7.07;2.97;;;3.30;99.90;;;;;;5027928;28;20188;-65